sensor_id;sensor_type;location;lat;lon;timestamp;P1;durP1;ratioP1;P2;durP2;ratioP2
38182;SDS011;23991;52.430;10.586;2024-03-08T00:00:22;24.90;;;11.90;;
38182;SDS011;23991;52.430;10.586;2024-03-08T00:02:48;23.48;;;12.38;;
38182;SDS011;23991;52.430;10.586;2024-03-08T00:05:15;20.55;;;11.30;;
38182;SDS011;23991;52.430;10.586;2024-03-08T00:07:41;21.73;;;11.38;;
38182;SDS011;23991;52.430;10.586;2024-03-08T00:10:08;20.85;;;10.70;;
38182;SDS011;23991;52.430;10.586;2024-03-08T00:12:36;24.75;;;12.30;;
38182;SDS011;23991;52.430;10.586;2024-03-08T00:15:08;21.00;;;12.23;;
38182;SDS011;23991;52.430;10.586;2024-03-08T00:17:35;23.50;;;12.18;;
38182;SDS011;23991;52.430;10.586;2024-03-08T00:20:01;22.65;;;11.98;;
38182;SDS011;23991;52.430;10.586;2024-03-08T00:22:28;29.45;;;13.30;;
38182;SDS011;23991;52.430;10.586;2024-03-08T00:24:55;21.63;;;11.75;;
38182;SDS011;23991;52.430;10.586;2024-03-08T00:27:21;22.30;;;12.75;;
38182;SDS011;23991;52.430;10.586;2024-03-08T00:29:46;23.73;;;12.20;;
38182;SDS011;23991;52.430;10.586;2024-03-08T00:32:12;20.75;;;11.75;;
38182;SDS011;23991;52.430;10.586;2024-03-08T00:34:38;22.45;;;12.40;;
38182;SDS011;23991;52.430;10.586;2024-03-08T00:37:03;21.92;;;11.52;;
38182;SDS011;23991;52.430;10.586;2024-03-08T00:39:29;22.45;;;12.52;;
38182;SDS011;23991;52.430;10.586;2024-03-08T00:41:55;21.85;;;11.30;;
38182;SDS011;23991;52.430;10.586;2024-03-08T00:44:20;19.05;;;11.30;;
38182;SDS011;23991;52.430;10.586;2024-03-08T00:46:46;21.55;;;11.95;;
38182;SDS011;23991;52.430;10.586;2024-03-08T00:49:11;22.75;;;12.27;;
38182;SDS011;23991;52.430;10.586;2024-03-08T00:51:37;20.63;;;12.25;;
38182;SDS011;23991;52.430;10.586;2024-03-08T00:54:03;22.30;;;12.65;;
38182;SDS011;23991;52.430;10.586;2024-03-08T00:56:29;21.55;;;11.73;;
38182;SDS011;23991;52.430;10.586;2024-03-08T00:58:54;26.02;;;12.70;;
38182;SDS011;23991;52.430;10.586;2024-03-08T01:01:20;21.60;;;12.00;;
38182;SDS011;23991;52.430;10.586;2024-03-08T01:03:45;25.85;;;13.27;;
38182;SDS011;23991;52.430;10.586;2024-03-08T01:06:11;20.52;;;11.88;;
38182;SDS011;23991;52.430;10.586;2024-03-08T01:08:37;22.40;;;12.65;;
38182;SDS011;23991;52.430;10.586;2024-03-08T01:11:03;22.35;;;12.32;;
38182;SDS011;23991;52.430;10.586;2024-03-08T01:13:30;17.88;;;10.57;;
38182;SDS011;23991;52.430;10.586;2024-03-08T01:15:55;25.00;;;12.27;;
38182;SDS011;23991;52.430;10.586;2024-03-08T01:18:21;25.23;;;12.50;;
38182;SDS011;23991;52.430;10.586;2024-03-08T01:20:47;21.40;;;11.77;;
38182;SDS011;23991;52.430;10.586;2024-03-08T01:23:12;20.63;;;12.27;;
38182;SDS011;23991;52.430;10.586;2024-03-08T01:25:38;23.92;;;12.50;;
38182;SDS011;23991;52.430;10.586;2024-03-08T01:28:04;21.23;;;11.38;;
38182;SDS011;23991;52.430;10.586;2024-03-08T01:30:34;22.23;;;12.20;;
38182;SDS011;23991;52.430;10.586;2024-03-08T01:33:03;22.35;;;11.68;;
38182;SDS011;23991;52.430;10.586;2024-03-08T01:35:29;29.63;;;11.55;;
38182;SDS011;23991;52.430;10.586;2024-03-08T01:37:54;19.77;;;10.82;;
38182;SDS011;23991;52.430;10.586;2024-03-08T01:40:20;21.00;;;11.30;;
38182;SDS011;23991;52.430;10.586;2024-03-08T01:42:46;23.80;;;12.10;;
38182;SDS011;23991;52.430;10.586;2024-03-08T01:45:12;21.17;;;11.75;;
38182;SDS011;23991;52.430;10.586;2024-03-08T01:47:38;22.92;;;12.13;;
38182;SDS011;23991;52.430;10.586;2024-03-08T01:50:04;22.42;;;12.57;;
38182;SDS011;23991;52.430;10.586;2024-03-08T01:52:31;25.80;;;12.63;;
38182;SDS011;23991;52.430;10.586;2024-03-08T01:55:01;22.55;;;12.20;;
38182;SDS011;23991;52.430;10.586;2024-03-08T01:57:28;23.02;;;11.27;;
38182;SDS011;23991;52.430;10.586;2024-03-08T01:59:58;25.10;;;13.60;;
38182;SDS011;23991;52.430;10.586;2024-03-08T02:04:56;25.02;;;11.65;;
38182;SDS011;23991;52.430;10.586;2024-03-08T02:07:22;21.83;;;11.65;;
38182;SDS011;23991;52.430;10.586;2024-03-08T02:09:48;23.23;;;12.50;;
38182;SDS011;23991;52.430;10.586;2024-03-08T02:12:13;23.52;;;12.95;;
38182;SDS011;23991;52.430;10.586;2024-03-08T02:14:39;26.30;;;12.82;;
38182;SDS011;23991;52.430;10.586;2024-03-08T02:17:05;23.95;;;11.95;;
38182;SDS011;23991;52.430;10.586;2024-03-08T02:19:30;20.98;;;11.38;;
38182;SDS011;23991;52.430;10.586;2024-03-08T02:21:57;20.80;;;11.18;;
38182;SDS011;23991;52.430;10.586;2024-03-08T02:24:24;22.95;;;12.15;;
38182;SDS011;23991;52.430;10.586;2024-03-08T02:26:50;26.05;;;12.93;;
38182;SDS011;23991;52.430;10.586;2024-03-08T02:29:16;23.63;;;13.05;;
38182;SDS011;23991;52.430;10.586;2024-03-08T02:31:42;22.90;;;12.88;;
38182;SDS011;23991;52.430;10.586;2024-03-08T02:34:07;24.95;;;12.88;;
38182;SDS011;23991;52.430;10.586;2024-03-08T02:36:34;26.63;;;12.48;;
38182;SDS011;23991;52.430;10.586;2024-03-08T02:39:03;27.65;;;13.23;;
38182;SDS011;23991;52.430;10.586;2024-03-08T02:41:30;23.27;;;12.52;;
38182;SDS011;23991;52.430;10.586;2024-03-08T02:43:55;26.30;;;12.80;;
38182;SDS011;23991;52.430;10.586;2024-03-08T02:46:21;22.83;;;11.88;;
38182;SDS011;23991;52.430;10.586;2024-03-08T02:48:46;21.88;;;12.77;;
38182;SDS011;23991;52.430;10.586;2024-03-08T02:51:12;21.65;;;12.50;;
38182;SDS011;23991;52.430;10.586;2024-03-08T02:53:38;24.90;;;12.93;;
38182;SDS011;23991;52.430;10.586;2024-03-08T02:56:04;24.25;;;13.38;;
38182;SDS011;23991;52.430;10.586;2024-03-08T02:58:33;23.40;;;12.82;;
38182;SDS011;23991;52.430;10.586;2024-03-08T03:00:58;25.77;;;13.15;;
38182;SDS011;23991;52.430;10.586;2024-03-08T03:03:24;26.67;;;13.38;;
38182;SDS011;23991;52.430;10.586;2024-03-08T03:05:51;25.85;;;13.68;;
38182;SDS011;23991;52.430;10.586;2024-03-08T03:08:20;27.65;;;13.82;;
38182;SDS011;23991;52.430;10.586;2024-03-08T03:10:46;27.35;;;13.15;;
38182;SDS011;23991;52.430;10.586;2024-03-08T03:13:11;27.75;;;13.38;;
38182;SDS011;23991;52.430;10.586;2024-03-08T03:15:37;24.02;;;13.00;;
38182;SDS011;23991;52.430;10.586;2024-03-08T03:18:03;22.50;;;12.98;;
38182;SDS011;23991;52.430;10.586;2024-03-08T03:20:28;25.98;;;13.10;;
38182;SDS011;23991;52.430;10.586;2024-03-08T03:23:05;27.08;;;13.38;;
38182;SDS011;23991;52.430;10.586;2024-03-08T03:25:33;27.90;;;14.05;;
38182;SDS011;23991;52.430;10.586;2024-03-08T03:28:00;27.75;;;14.85;;
38182;SDS011;23991;52.430;10.586;2024-03-08T03:30:26;24.08;;;13.55;;
38182;SDS011;23991;52.430;10.586;2024-03-08T03:32:55;24.85;;;13.82;;
38182;SDS011;23991;52.430;10.586;2024-03-08T03:35:23;24.13;;;13.30;;
38182;SDS011;23991;52.430;10.586;2024-03-08T03:37:49;25.23;;;14.98;;
38182;SDS011;23991;52.430;10.586;2024-03-08T03:40:33;25.80;;;14.60;;
38182;SDS011;23991;52.430;10.586;2024-03-08T03:42:59;29.65;;;15.52;;
38182;SDS011;23991;52.430;10.586;2024-03-08T03:45:25;24.38;;;13.43;;
38182;SDS011;23991;52.430;10.586;2024-03-08T03:47:51;24.23;;;13.82;;
38182;SDS011;23991;52.430;10.586;2024-03-08T03:50:20;28.58;;;15.07;;
38182;SDS011;23991;52.430;10.586;2024-03-08T03:52:47;27.30;;;14.52;;
38182;SDS011;23991;52.430;10.586;2024-03-08T03:55:13;28.13;;;15.60;;
38182;SDS011;23991;52.430;10.586;2024-03-08T03:57:39;26.02;;;14.73;;
38182;SDS011;23991;52.430;10.586;2024-03-08T04:00:05;27.90;;;14.93;;
38182;SDS011;23991;52.430;10.586;2024-03-08T04:02:39;30.67;;;15.20;;
38182;SDS011;23991;52.430;10.586;2024-03-08T04:05:06;28.73;;;15.73;;
38182;SDS011;23991;52.430;10.586;2024-03-08T04:07:32;31.08;;;15.20;;
38182;SDS011;23991;52.430;10.586;2024-03-08T04:09:58;30.75;;;15.45;;
38182;SDS011;23991;52.430;10.586;2024-03-08T04:12:23;29.95;;;15.60;;
38182;SDS011;23991;52.430;10.586;2024-03-08T04:14:49;32.53;;;15.15;;
38182;SDS011;23991;52.430;10.586;2024-03-08T04:17:14;26.25;;;15.68;;
38182;SDS011;23991;52.430;10.586;2024-03-08T04:19:40;31.45;;;16.30;;
38182;SDS011;23991;52.430;10.586;2024-03-08T04:22:06;29.50;;;15.45;;
38182;SDS011;23991;52.430;10.586;2024-03-08T04:24:32;27.50;;;14.60;;
38182;SDS011;23991;52.430;10.586;2024-03-08T04:26:58;29.70;;;15.32;;
38182;SDS011;23991;52.430;10.586;2024-03-08T04:29:24;32.28;;;16.42;;
38182;SDS011;23991;52.430;10.586;2024-03-08T04:31:50;29.88;;;15.68;;
38182;SDS011;23991;52.430;10.586;2024-03-08T04:34:19;31.60;;;16.27;;
38182;SDS011;23991;52.430;10.586;2024-03-08T04:36:45;27.30;;;15.45;;
38182;SDS011;23991;52.430;10.586;2024-03-08T04:39:11;34.53;;;16.05;;
38182;SDS011;23991;52.430;10.586;2024-03-08T04:41:38;30.00;;;14.95;;
38182;SDS011;23991;52.430;10.586;2024-03-08T04:44:04;29.83;;;16.45;;
38182;SDS011;23991;52.430;10.586;2024-03-08T04:46:30;29.92;;;16.27;;
38182;SDS011;23991;52.430;10.586;2024-03-08T04:48:55;26.40;;;14.57;;
38182;SDS011;23991;52.430;10.586;2024-03-08T04:51:21;29.48;;;16.05;;
38182;SDS011;23991;52.430;10.586;2024-03-08T04:53:47;28.90;;;15.50;;
38182;SDS011;23991;52.430;10.586;2024-03-08T04:56:13;29.25;;;15.63;;
38182;SDS011;23991;52.430;10.586;2024-03-08T04:58:38;27.52;;;14.60;;
38182;SDS011;23991;52.430;10.586;2024-03-08T05:01:04;26.85;;;14.88;;
38182;SDS011;23991;52.430;10.586;2024-03-08T05:03:29;28.63;;;15.68;;
38182;SDS011;23991;52.430;10.586;2024-03-08T05:05:55;33.22;;;16.77;;
38182;SDS011;23991;52.430;10.586;2024-03-08T05:08:21;30.40;;;15.63;;
38182;SDS011;23991;52.430;10.586;2024-03-08T05:10:47;29.00;;;15.98;;
38182;SDS011;23991;52.430;10.586;2024-03-08T05:13:12;31.20;;;16.60;;
38182;SDS011;23991;52.430;10.586;2024-03-08T05:15:38;29.08;;;15.40;;
38182;SDS011;23991;52.430;10.586;2024-03-08T05:18:04;32.35;;;16.15;;
38182;SDS011;23991;52.430;10.586;2024-03-08T05:20:30;28.45;;;15.45;;
38182;SDS011;23991;52.430;10.586;2024-03-08T05:22:56;34.22;;;15.93;;
38182;SDS011;23991;52.430;10.586;2024-03-08T05:25:22;26.42;;;14.23;;
38182;SDS011;23991;52.430;10.586;2024-03-08T05:27:48;27.98;;;15.15;;
38182;SDS011;23991;52.430;10.586;2024-03-08T05:30:17;27.48;;;14.65;;
38182;SDS011;23991;52.430;10.586;2024-03-08T05:32:43;27.50;;;15.03;;
38182;SDS011;23991;52.430;10.586;2024-03-08T05:35:11;30.40;;;16.05;;
38182;SDS011;23991;52.430;10.586;2024-03-08T05:37:37;31.52;;;15.65;;
38182;SDS011;23991;52.430;10.586;2024-03-08T05:40:04;27.92;;;15.65;;
38182;SDS011;23991;52.430;10.586;2024-03-08T05:42:35;30.42;;;16.42;;
38182;SDS011;23991;52.430;10.586;2024-03-08T05:45:04;28.65;;;16.17;;
38182;SDS011;23991;52.430;10.586;2024-03-08T05:47:31;30.20;;;16.30;;
38182;SDS011;23991;52.430;10.586;2024-03-08T05:49:57;32.55;;;15.32;;
38182;SDS011;23991;52.430;10.586;2024-03-08T05:52:27;31.17;;;15.98;;
38182;SDS011;23991;52.430;10.586;2024-03-08T05:54:52;30.48;;;14.30;;
38182;SDS011;23991;52.430;10.586;2024-03-08T05:57:18;30.27;;;16.02;;
38182;SDS011;23991;52.430;10.586;2024-03-08T05:59:44;28.60;;;16.23;;
38182;SDS011;23991;52.430;10.586;2024-03-08T06:02:13;26.63;;;14.25;;
38182;SDS011;23991;52.430;10.586;2024-03-08T06:04:41;31.67;;;16.30;;
38182;SDS011;23991;52.430;10.586;2024-03-08T06:07:07;30.05;;;15.38;;
38182;SDS011;23991;52.430;10.586;2024-03-08T06:12:10;31.02;;;15.82;;
38182;SDS011;23991;52.430;10.586;2024-03-08T06:14:36;29.02;;;16.38;;
38182;SDS011;23991;52.430;10.586;2024-03-08T06:17:02;30.33;;;14.75;;
38182;SDS011;23991;52.430;10.586;2024-03-08T06:19:31;29.05;;;16.40;;
38182;SDS011;23991;52.430;10.586;2024-03-08T06:21:56;27.00;;;14.25;;
38182;SDS011;23991;52.430;10.586;2024-03-08T06:24:22;34.88;;;15.77;;
38182;SDS011;23991;52.430;10.586;2024-03-08T06:26:47;31.67;;;16.45;;
38182;SDS011;23991;52.430;10.586;2024-03-08T06:29:13;30.65;;;15.48;;
38182;SDS011;23991;52.430;10.586;2024-03-08T06:31:40;29.95;;;15.98;;
38182;SDS011;23991;52.430;10.586;2024-03-08T06:34:06;34.78;;;17.27;;
38182;SDS011;23991;52.430;10.586;2024-03-08T06:36:33;32.33;;;16.55;;
38182;SDS011;23991;52.430;10.586;2024-03-08T06:38:58;28.42;;;14.93;;
38182;SDS011;23991;52.430;10.586;2024-03-08T06:41:24;30.45;;;15.77;;
38182;SDS011;23991;52.430;10.586;2024-03-08T06:43:49;26.25;;;14.85;;
38182;SDS011;23991;52.430;10.586;2024-03-08T06:46:16;28.88;;;15.93;;
38182;SDS011;23991;52.430;10.586;2024-03-08T06:48:45;29.23;;;14.55;;
38182;SDS011;23991;52.430;10.586;2024-03-08T06:51:10;28.55;;;15.57;;
38182;SDS011;23991;52.430;10.586;2024-03-08T06:53:36;30.67;;;15.77;;
38182;SDS011;23991;52.430;10.586;2024-03-08T06:56:03;25.33;;;14.85;;
38182;SDS011;23991;52.430;10.586;2024-03-08T06:58:29;31.88;;;16.30;;
38182;SDS011;23991;52.430;10.586;2024-03-08T07:00:54;24.45;;;14.73;;
38182;SDS011;23991;52.430;10.586;2024-03-08T07:03:23;31.83;;;17.08;;
38182;SDS011;23991;52.430;10.586;2024-03-08T07:05:50;27.33;;;14.80;;
38182;SDS011;23991;52.430;10.586;2024-03-08T07:08:16;30.73;;;17.42;;
38182;SDS011;23991;52.430;10.586;2024-03-08T07:10:41;27.38;;;15.63;;
38182;SDS011;23991;52.430;10.586;2024-03-08T07:13:07;28.15;;;15.38;;
38182;SDS011;23991;52.430;10.586;2024-03-08T07:15:33;27.58;;;15.13;;
38182;SDS011;23991;52.430;10.586;2024-03-08T07:18:02;28.48;;;15.73;;
38182;SDS011;23991;52.430;10.586;2024-03-08T07:20:28;27.63;;;16.45;;
38182;SDS011;23991;52.430;10.586;2024-03-08T07:22:54;29.25;;;16.02;;
38182;SDS011;23991;52.430;10.586;2024-03-08T07:25:20;24.90;;;14.13;;
38182;SDS011;23991;52.430;10.586;2024-03-08T07:27:49;25.40;;;14.95;;
38182;SDS011;23991;52.430;10.586;2024-03-08T07:30:19;28.35;;;16.58;;
38182;SDS011;23991;52.430;10.586;2024-03-08T07:33:05;28.75;;;15.75;;
38182;SDS011;23991;52.430;10.586;2024-03-08T07:35:32;28.83;;;15.73;;
38182;SDS011;23991;52.430;10.586;2024-03-08T07:37:58;29.20;;;15.07;;
38182;SDS011;23991;52.430;10.586;2024-03-08T07:40:25;29.75;;;16.45;;
38182;SDS011;23991;52.430;10.586;2024-03-08T07:42:50;26.77;;;15.73;;
38182;SDS011;23991;52.430;10.586;2024-03-08T07:45:16;31.75;;;15.38;;
38182;SDS011;23991;52.430;10.586;2024-03-08T07:47:42;29.08;;;15.98;;
38182;SDS011;23991;52.430;10.586;2024-03-08T07:50:08;25.25;;;15.20;;
38182;SDS011;23991;52.430;10.586;2024-03-08T07:52:34;26.38;;;15.88;;
38182;SDS011;23991;52.430;10.586;2024-03-08T07:55:01;25.98;;;15.40;;
38182;SDS011;23991;52.430;10.586;2024-03-08T07:57:28;28.92;;;15.00;;
38182;SDS011;23991;52.430;10.586;2024-03-08T07:59:54;27.80;;;15.75;;
38182;SDS011;23991;52.430;10.586;2024-03-08T08:02:20;28.80;;;16.35;;
38182;SDS011;23991;52.430;10.586;2024-03-08T08:04:46;27.00;;;15.50;;
38182;SDS011;23991;52.430;10.586;2024-03-08T08:07:11;28.20;;;16.90;;
38182;SDS011;23991;52.430;10.586;2024-03-08T08:09:37;28.33;;;16.10;;
38182;SDS011;23991;52.430;10.586;2024-03-08T08:12:03;25.25;;;15.68;;
38182;SDS011;23991;52.430;10.586;2024-03-08T08:14:29;28.00;;;16.92;;
38182;SDS011;23991;52.430;10.586;2024-03-08T08:16:55;30.48;;;16.30;;
38182;SDS011;23991;52.430;10.586;2024-03-08T08:19:22;24.27;;;15.60;;
38182;SDS011;23991;52.430;10.586;2024-03-08T08:21:48;26.13;;;15.55;;
38182;SDS011;23991;52.430;10.586;2024-03-08T08:24:14;27.27;;;16.73;;
38182;SDS011;23991;52.430;10.586;2024-03-08T08:26:40;27.38;;;15.57;;
38182;SDS011;23991;52.430;10.586;2024-03-08T08:29:06;26.02;;;15.25;;
38182;SDS011;23991;52.430;10.586;2024-03-08T08:31:32;28.77;;;16.05;;
38182;SDS011;23991;52.430;10.586;2024-03-08T08:34:01;28.27;;;16.43;;
38182;SDS011;23991;52.430;10.586;2024-03-08T08:36:28;24.38;;;16.38;;
38182;SDS011;23991;52.430;10.586;2024-03-08T08:38:54;24.63;;;16.02;;
38182;SDS011;23991;52.430;10.586;2024-03-08T08:41:21;26.17;;;15.65;;
38182;SDS011;23991;52.430;10.586;2024-03-08T08:43:47;26.95;;;16.73;;
38182;SDS011;23991;52.430;10.586;2024-03-08T08:46:16;24.50;;;16.10;;
38182;SDS011;23991;52.430;10.586;2024-03-08T08:48:42;26.75;;;16.42;;
38182;SDS011;23991;52.430;10.586;2024-03-08T08:51:10;28.50;;;16.45;;
38182;SDS011;23991;52.430;10.586;2024-03-08T08:53:39;23.45;;;15.65;;
38182;SDS011;23991;52.430;10.586;2024-03-08T08:56:11;30.25;;;16.67;;
38182;SDS011;23991;52.430;10.586;2024-03-08T08:58:41;27.65;;;16.30;;
38182;SDS011;23991;52.430;10.586;2024-03-08T09:01:07;24.70;;;15.25;;
38182;SDS011;23991;52.430;10.586;2024-03-08T09:03:34;27.13;;;16.00;;
38182;SDS011;23991;52.430;10.586;2024-03-08T09:06:02;24.52;;;16.35;;
38182;SDS011;23991;52.430;10.586;2024-03-08T09:08:30;27.13;;;17.10;;
38182;SDS011;23991;52.430;10.586;2024-03-08T09:10:56;26.98;;;16.40;;
38182;SDS011;23991;52.430;10.586;2024-03-08T09:13:21;27.05;;;17.48;;
38182;SDS011;23991;52.430;10.586;2024-03-08T09:15:48;24.63;;;16.77;;
38182;SDS011;23991;52.430;10.586;2024-03-08T09:18:13;24.13;;;16.00;;
38182;SDS011;23991;52.430;10.586;2024-03-08T09:20:39;28.98;;;17.52;;
38182;SDS011;23991;52.430;10.586;2024-03-08T09:23:06;25.58;;;17.80;;
38182;SDS011;23991;52.430;10.586;2024-03-08T09:25:32;26.63;;;17.13;;
38182;SDS011;23991;52.430;10.586;2024-03-08T09:27:58;29.08;;;17.42;;
38182;SDS011;23991;52.430;10.586;2024-03-08T09:30:24;27.27;;;18.27;;
38182;SDS011;23991;52.430;10.586;2024-03-08T09:32:49;27.80;;;18.38;;
38182;SDS011;23991;52.430;10.586;2024-03-08T09:35:16;27.60;;;17.45;;
38182;SDS011;23991;52.430;10.586;2024-03-08T09:37:41;25.23;;;16.85;;
38182;SDS011;23991;52.430;10.586;2024-03-08T09:40:07;25.42;;;17.25;;
38182;SDS011;23991;52.430;10.586;2024-03-08T09:42:40;28.42;;;18.48;;
38182;SDS011;23991;52.430;10.586;2024-03-08T09:45:09;25.90;;;18.27;;
38182;SDS011;23991;52.430;10.586;2024-03-08T09:47:39;30.52;;;19.42;;
38182;SDS011;23991;52.430;10.586;2024-03-08T09:50:10;27.50;;;18.45;;
38182;SDS011;23991;52.430;10.586;2024-03-08T09:52:39;25.25;;;18.40;;
38182;SDS011;23991;52.430;10.586;2024-03-08T09:55:05;28.40;;;18.70;;
38182;SDS011;23991;52.430;10.586;2024-03-08T09:57:36;25.58;;;18.00;;
38182;SDS011;23991;52.430;10.586;2024-03-08T10:00:02;29.05;;;18.50;;
38182;SDS011;23991;52.430;10.586;2024-03-08T10:02:44;27.38;;;17.65;;
38182;SDS011;23991;52.430;10.586;2024-03-08T10:05:11;28.23;;;18.92;;
38182;SDS011;23991;52.430;10.586;2024-03-08T10:07:37;29.38;;;18.80;;
38182;SDS011;23991;52.430;10.586;2024-03-08T10:10:03;29.05;;;19.80;;
38182;SDS011;23991;52.430;10.586;2024-03-08T10:12:29;27.20;;;18.65;;
38182;SDS011;23991;52.430;10.586;2024-03-08T10:14:56;29.08;;;19.35;;
38182;SDS011;23991;52.430;10.586;2024-03-08T10:17:23;32.80;;;20.23;;
38182;SDS011;23991;52.430;10.586;2024-03-08T10:19:50;26.63;;;18.38;;
38182;SDS011;23991;52.430;10.586;2024-03-08T10:22:17;28.65;;;19.90;;
38182;SDS011;23991;52.430;10.586;2024-03-08T10:24:44;25.92;;;18.75;;
38182;SDS011;23991;52.430;10.586;2024-03-08T10:27:11;29.02;;;19.20;;
38182;SDS011;23991;52.430;10.586;2024-03-08T10:29:36;26.95;;;19.00;;
38182;SDS011;23991;52.430;10.586;2024-03-08T10:32:03;27.48;;;17.92;;
38182;SDS011;23991;52.430;10.586;2024-03-08T10:34:32;30.10;;;19.80;;
38182;SDS011;23991;52.430;10.586;2024-03-08T10:36:59;26.58;;;19.08;;
38182;SDS011;23991;52.430;10.586;2024-03-08T10:39:30;33.05;;;20.10;;
38182;SDS011;23991;52.430;10.586;2024-03-08T10:42:18;27.65;;;19.50;;
38182;SDS011;23991;52.430;10.586;2024-03-08T10:44:54;25.85;;;17.85;;
38182;SDS011;23991;52.430;10.586;2024-03-08T10:47:37;25.90;;;18.75;;
38182;SDS011;23991;52.430;10.586;2024-03-08T10:50:18;27.85;;;18.42;;
38182;SDS011;23991;52.430;10.586;2024-03-08T10:52:50;28.45;;;18.55;;
38182;SDS011;23991;52.430;10.586;2024-03-08T10:55:19;25.77;;;19.08;;
38182;SDS011;23991;52.430;10.586;2024-03-08T10:57:46;24.08;;;18.85;;
38182;SDS011;23991;52.430;10.586;2024-03-08T11:00:16;26.75;;;18.77;;
38182;SDS011;23991;52.430;10.586;2024-03-08T11:02:46;27.95;;;18.80;;
38182;SDS011;23991;52.430;10.586;2024-03-08T11:05:31;28.80;;;19.27;;
38182;SDS011;23991;52.430;10.586;2024-03-08T11:08:18;24.52;;;17.83;;
38182;SDS011;23991;52.430;10.586;2024-03-08T11:10:48;25.08;;;19.10;;
38182;SDS011;23991;52.430;10.586;2024-03-08T11:16:11;24.52;;;17.88;;
38182;SDS011;23991;52.430;10.586;2024-03-08T11:19:01;25.83;;;17.98;;
38182;SDS011;23991;52.430;10.586;2024-03-08T11:21:36;24.00;;;18.55;;
38182;SDS011;23991;52.430;10.586;2024-03-08T11:24:14;27.38;;;19.05;;
38182;SDS011;23991;52.430;10.586;2024-03-08T11:26:41;26.55;;;17.95;;
38182;SDS011;23991;52.430;10.586;2024-03-08T11:32:19;25.05;;;17.90;;
38182;SDS011;23991;52.430;10.586;2024-03-08T11:34:47;26.23;;;18.42;;
38182;SDS011;23991;52.430;10.586;2024-03-08T11:37:17;22.80;;;16.88;;
38182;SDS011;23991;52.430;10.586;2024-03-08T11:39:46;24.88;;;17.27;;
38182;SDS011;23991;52.430;10.586;2024-03-08T11:42:13;23.83;;;17.50;;
38182;SDS011;23991;52.430;10.586;2024-03-08T11:44:39;26.23;;;17.27;;
38182;SDS011;23991;52.430;10.586;2024-03-08T11:47:08;27.95;;;17.77;;
38182;SDS011;23991;52.430;10.586;2024-03-08T11:49:35;22.50;;;16.85;;
38182;SDS011;23991;52.430;10.586;2024-03-08T11:52:01;21.50;;;16.40;;
38182;SDS011;23991;52.430;10.586;2024-03-08T11:54:30;21.80;;;16.70;;
38182;SDS011;23991;52.430;10.586;2024-03-08T11:56:56;20.88;;;14.98;;
38182;SDS011;23991;52.430;10.586;2024-03-08T11:59:26;22.38;;;15.25;;
38182;SDS011;23991;52.430;10.586;2024-03-08T12:02:05;21.05;;;15.25;;
38182;SDS011;23991;52.430;10.586;2024-03-08T12:04:32;21.55;;;16.30;;
38182;SDS011;23991;52.430;10.586;2024-03-08T12:07:00;21.30;;;16.38;;
38182;SDS011;23991;52.430;10.586;2024-03-08T12:09:27;19.95;;;14.85;;
38182;SDS011;23991;52.430;10.586;2024-03-08T12:11:53;24.08;;;17.02;;
38182;SDS011;23991;52.430;10.586;2024-03-08T12:14:19;19.67;;;15.40;;
38182;SDS011;23991;52.430;10.586;2024-03-08T12:16:45;23.75;;;15.07;;
38182;SDS011;23991;52.430;10.586;2024-03-08T12:19:13;20.10;;;15.20;;
38182;SDS011;23991;52.430;10.586;2024-03-08T12:21:39;21.58;;;15.88;;
38182;SDS011;23991;52.430;10.586;2024-03-08T12:24:13;23.52;;;16.80;;
38182;SDS011;23991;52.430;10.586;2024-03-08T12:26:41;17.75;;;14.10;;
38182;SDS011;23991;52.430;10.586;2024-03-08T12:29:14;21.48;;;14.90;;
38182;SDS011;23991;52.430;10.586;2024-03-08T12:31:42;24.25;;;15.40;;
38182;SDS011;23991;52.430;10.586;2024-03-08T12:34:08;20.02;;;15.00;;
38182;SDS011;23991;52.430;10.586;2024-03-08T12:36:34;19.38;;;14.60;;
38182;SDS011;23991;52.430;10.586;2024-03-08T12:39:05;19.20;;;14.05;;
38182;SDS011;23991;52.430;10.586;2024-03-08T12:41:38;19.42;;;15.18;;
38182;SDS011;23991;52.430;10.586;2024-03-08T12:44:05;19.38;;;14.80;;
38182;SDS011;23991;52.430;10.586;2024-03-08T12:46:32;21.23;;;14.90;;
38182;SDS011;23991;52.430;10.586;2024-03-08T12:48:59;20.45;;;14.52;;
38182;SDS011;23991;52.430;10.586;2024-03-08T12:51:25;19.90;;;14.85;;
38182;SDS011;23991;52.430;10.586;2024-03-08T12:53:54;21.77;;;14.57;;
38182;SDS011;23991;52.430;10.586;2024-03-08T12:56:31;17.58;;;14.00;;
38182;SDS011;23991;52.430;10.586;2024-03-08T12:58:58;19.70;;;14.18;;
38182;SDS011;23991;52.430;10.586;2024-03-08T13:01:25;18.20;;;14.82;;
38182;SDS011;23991;52.430;10.586;2024-03-08T13:03:51;20.33;;;15.35;;
38182;SDS011;23991;52.430;10.586;2024-03-08T13:06:18;18.92;;;15.13;;
38182;SDS011;23991;52.430;10.586;2024-03-08T13:08:46;20.10;;;14.33;;
38182;SDS011;23991;52.430;10.586;2024-03-08T13:11:13;20.42;;;14.77;;
38182;SDS011;23991;52.430;10.586;2024-03-08T13:13:39;18.25;;;14.48;;
38182;SDS011;23991;52.430;10.586;2024-03-08T13:16:06;18.75;;;14.95;;
38182;SDS011;23991;52.430;10.586;2024-03-08T13:18:35;19.40;;;14.98;;
38182;SDS011;23991;52.430;10.586;2024-03-08T13:21:01;18.25;;;14.52;;
38182;SDS011;23991;52.430;10.586;2024-03-08T13:23:32;20.88;;;14.77;;
38182;SDS011;23991;52.430;10.586;2024-03-08T13:26:04;18.75;;;14.90;;
38182;SDS011;23991;52.430;10.586;2024-03-08T13:28:30;17.85;;;14.55;;
38182;SDS011;23991;52.430;10.586;2024-03-08T13:31:01;18.50;;;14.10;;
38182;SDS011;23991;52.430;10.586;2024-03-08T13:33:28;19.00;;;13.85;;
38182;SDS011;23991;52.430;10.586;2024-03-08T13:35:53;17.98;;;14.02;;
38182;SDS011;23991;52.430;10.586;2024-03-08T13:38:19;17.70;;;13.27;;
38182;SDS011;23991;52.430;10.586;2024-03-08T13:40:45;19.27;;;14.88;;
38182;SDS011;23991;52.430;10.586;2024-03-08T13:43:11;22.42;;;14.35;;
38182;SDS011;23991;52.430;10.586;2024-03-08T13:45:38;17.60;;;13.27;;
38182;SDS011;23991;52.430;10.586;2024-03-08T13:48:03;18.23;;;13.15;;
38182;SDS011;23991;52.430;10.586;2024-03-08T13:50:29;20.25;;;13.95;;
38182;SDS011;23991;52.430;10.586;2024-03-08T13:52:56;21.55;;;14.13;;
38182;SDS011;23991;52.430;10.586;2024-03-08T13:55:21;18.48;;;13.73;;
38182;SDS011;23991;52.430;10.586;2024-03-08T13:57:48;19.17;;;12.98;;
38182;SDS011;23991;52.430;10.586;2024-03-08T14:00:14;18.35;;;12.90;;
38182;SDS011;23991;52.430;10.586;2024-03-08T14:02:40;17.27;;;12.73;;
38182;SDS011;23991;52.430;10.586;2024-03-08T14:05:09;19.15;;;13.05;;
38182;SDS011;23991;52.430;10.586;2024-03-08T14:07:36;21.33;;;12.63;;
38182;SDS011;23991;52.430;10.586;2024-03-08T14:10:02;17.38;;;12.55;;
38182;SDS011;23991;52.430;10.586;2024-03-08T14:12:28;15.55;;;11.90;;
38182;SDS011;23991;52.430;10.586;2024-03-08T14:14:54;16.95;;;12.10;;
38182;SDS011;23991;52.430;10.586;2024-03-08T14:17:20;16.05;;;12.43;;
38182;SDS011;23991;52.430;10.586;2024-03-08T14:19:46;16.27;;;12.45;;